Aérodrome :
LOGIN :

S'inscrire | Disclaimer

   EN    FR    IT 

 










Légende :    VFR   VFR Marginal   IFR   IFR Intensif   IFR Très Intensif
Visi : 
Plafond : 
>= 8 km
>= 3000ft
5 à 8 km
1000 à 3000 ft
1500m à 5 km
500 à 1000 ft
800 à 1500m
200 à 500 ft
< 800m
< 200 ft
Symboles :   Orages  Brouillard  Fortes neiges  Fortes précipitations  Vent > 20 kt
SIGMETs :   Divers  Orages  Givrage  Turbulence  Onde Orograph.  Cendres Volcan.







- Altitude de l'aérodrome : 63 ft
- Code IATA : BZM


EHWO - Woensdrecht Airbase

DERNIER METAR :
  • 250830Z AUTO 28011KT 240V320 9999 BKN016 BKN019 BKN025 12/08 Q1011 WHT 28013G23KT 9999 SCT017 BKN030 BECMG SCT025

METARs EXPIRÉS :
  • 250825Z AUTO 28012KT 240V320 9999 SCT014 BKN016 BKN020 11/08 Q1011 GRN 28013G23KT 9999 SCT017 BKN030
  • 250800Z AUTO 27011KT 230V330 9999 BKN014 OVC016 11/08 Q1011 GRN 28013G23KT 9999 SCT015 BKN030
  • 250755Z AUTO 28011KT 230V320 9999 SCT014 BKN017 BKN021 11/08 Q1011 GRN 28013G23KT 9999 SCT015 BKN030
  • 250725Z AUTO 28012KT 240V340 9999 BKN015 OVC021 11/08 Q1010 WHT 28013G23KT 9999 SCT015 BKN030
  • 250702Z AUTO 28014KT 240V330 9999 SCT016 SCT022 OVC027 11/08 Q1010 WHT 28013G23KT 9999 SCT015 BKN030
  • 250655Z AUTO 28014KT 230V330 9999 FEW017 SCT020 OVC027 11/08 Q1010 WHT 28012G22KT 9999 FEW015 SCT020 BKN030 TEMPO 4500 -DZRA FEW007 SCT012 BKN015
  • 250633Z AUTO 27011KT 240V320 9999 FEW014 SCT017 OVC030 11/08 Q1010 WHT 28012G22KT 9999 FEW015 SCT020 BKN030 TEMPO 4500 -DZRA FEW007 SCT012 BKN015
  • 250625Z AUTO 28010KT 240V320 9999 FEW014 SCT016 OVC029 11/08 Q1010 WHT 28012G22KT 9999 FEW015 SCT020 BKN030 TEMPO 4500 -DZRA FEW007 SCT012 BKN015
  • 250555Z AUTO 29012KT 230V330 9999 SCT013 BKN016 BKN021 11/08 Q1009 GRN 27013G23KT 9999 FEW015 SCT018 BKN020 TEMPO 4500 -DZRA FEW007 SCT012 BKN015

TAF TAF EHWO
Valide du 25 à 05h jusqu'au 25 à 17h UTC


250405Z 2505/2517 25015G25KT 9999 SCT012 BKN020
TEMPO 2505/2506 3500 RADZ SHRA SCT006 BKN010 BKN015 SCT018CB
BECMG 2507/2510 BKN025
PROB40
TEMPO 2506/2517 SCT020CB BKN025
Pas de NOTAMs connus pour ce terrain.



MET'MAP, la Météo Aéronautique d'un coup d'oeil ! - Copyright ORBIFLY Décembre 2007 - Disclaimer

ORBIFLY MET'MAP TEAM :

Programmation & Développement : Alexandra Zaïnal
Conception & Développement : Baudouin d'Aumeries
Co-Programmation & Développement : Marc-Olivier Méhu
Soutien technique & logistique : Manuel Goepfert

Contact : metmap@orbifly.com




SOURCES & CREDITS :

   NOAA